createdAt,value
2022-12-31T00:00:02.422Z,78.78
2022-12-31T00:02:36.908Z,78.30
2022-12-31T00:05:04.628Z,78.57
2022-12-31T00:09:57.652Z,79.51
2022-12-31T00:12:24.303Z,80.74
2022-12-31T00:14:52.401Z,81.99
2022-12-31T00:17:38.200Z,82.39
2022-12-31T00:20:05.812Z,83.19
2022-12-31T00:22:32.423Z,82.71
2022-12-31T00:24:59.382Z,82.46
2022-12-31T00:27:37.316Z,82.62
2022-12-31T00:30:06.851Z,81.88
2022-12-31T00:32:38.886Z,81.62
2022-12-31T00:35:09.550Z,81.03
2022-12-31T00:37:36.236Z,81.08
2022-12-31T00:40:03.682Z,80.33
2022-12-31T00:42:30.290Z,79.74
2022-12-31T00:44:59.300Z,80.23
2022-12-31T00:47:27.582Z,80.30
2022-12-31T00:49:54.289Z,79.82
2022-12-31T00:52:26.591Z,80.49
2022-12-31T00:54:53.189Z,80.09
2022-12-31T00:57:19.829Z,79.75
2022-12-31T00:59:46.645Z,80.15
2022-12-31T01:02:13.403Z,80.70
2022-12-31T01:04:42.917Z,81.08
2022-12-31T01:07:09.542Z,81.26
2022-12-31T01:09:39.365Z,80.86
2022-12-31T01:12:06.869Z,80.72
2022-12-31T01:14:33.571Z,81.27
2022-12-31T01:17:00.226Z,81.34
2022-12-31T01:19:29.076Z,81.82
2022-12-31T01:22:01.500Z,82.10
2022-12-31T01:24:28.122Z,81.88
2022-12-31T01:26:54.790Z,81.84
2022-12-31T01:29:21.574Z,81.53
2022-12-31T01:31:50.325Z,81.21
2022-12-31T01:34:16.941Z,80.69
2022-12-31T01:36:43.991Z,81.34
2022-12-31T01:39:12.674Z,81.50
2022-12-31T01:41:43.278Z,81.25
2022-12-31T01:47:44.802Z,81.97
2022-12-31T01:50:16.813Z,81.94
2022-12-31T01:52:48.551Z,81.81
2022-12-31T01:55:20.319Z,81.65
2022-12-31T01:57:51.324Z,81.51
2022-12-31T02:00:18.718Z,81.92
2022-12-31T02:02:48.072Z,80.70
2022-12-31T02:05:24.052Z,80.71
2022-12-31T02:07:54.739Z,81.41
2022-12-31T02:10:23.036Z,80.81
2022-12-31T02:12:51.859Z,81.30
2022-12-31T02:15:50.236Z,81.07
2022-12-31T02:18:24.531Z,80.37
2022-12-31T02:21:20.791Z,80.04
2022-12-31T02:24:29.354Z,80.27
2022-12-31T02:27:02.921Z,79.76
2022-12-31T02:30:18.489Z,79.60
2022-12-31T02:33:02.367Z,78.69
2022-12-31T02:35:31.427Z,78.61
2022-12-31T02:38:03.200Z,79.09
2022-12-31T02:40:30.226Z,78.45
2022-12-31T02:42:56.858Z,77.34
2022-12-31T02:45:29.861Z,77.92
2022-12-31T02:48:16.412Z,77.32
2022-12-31T02:50:47.989Z,76.68
2022-12-31T02:53:28.795Z,77.20
2022-12-31T02:56:03.700Z,75.79
2022-12-31T02:58:38.138Z,75.21
2022-12-31T03:01:06.334Z,75.55
2022-12-31T03:03:34.190Z,75.96
2022-12-31T03:06:09.093Z,75.38
2022-12-31T03:08:36.122Z,74.79
2022-12-31T03:11:02.868Z,74.71
2022-12-31T03:13:29.732Z,74.84
2022-12-31T03:15:56.856Z,74.85
2022-12-31T03:18:24.851Z,74.05
2022-12-31T03:20:51.699Z,74.26
2022-12-31T03:23:21.745Z,74.15
2022-12-31T03:25:48.401Z,74.10
2022-12-31T03:28:17.362Z,73.98
2022-12-31T03:30:47.043Z,74.25
2022-12-31T03:33:14.165Z,73.84
2022-12-31T03:35:44.062Z,74.46
2022-12-31T03:38:11.342Z,74.03
2022-12-31T03:40:39.886Z,73.96
2022-12-31T03:43:06.869Z,73.81
2022-12-31T03:45:33.607Z,73.35
2022-12-31T03:48:00.799Z,73.39
2022-12-31T03:50:28.379Z,73.65
2022-12-31T03:52:56.607Z,73.50
2022-12-31T03:55:23.376Z,73.17
2022-12-31T03:57:50.171Z,74.26
2022-12-31T04:00:19.677Z,74.44
2022-12-31T04:02:46.714Z,73.61
2022-12-31T04:05:13.796Z,74.40
2022-12-31T04:07:40.803Z,73.81
2022-12-31T04:10:12.238Z,73.62
2022-12-31T04:12:40.598Z,73.63
2022-12-31T04:15:11.734Z,73.97
2022-12-31T04:17:38.479Z,75.00
2022-12-31T04:20:06.143Z,74.04
2022-12-31T04:22:32.766Z,73.81
2022-12-31T04:24:59.398Z,73.86
2022-12-31T04:27:27.910Z,74.37
2022-12-31T04:29:54.817Z,73.73
2022-12-31T04:32:24.647Z,73.90
2022-12-31T04:34:51.240Z,73.77
2022-12-31T04:37:18.533Z,73.39
2022-12-31T04:39:45.100Z,73.19
2022-12-31T04:42:12.220Z,72.85
2022-12-31T04:44:40.186Z,72.81
2022-12-31T04:47:07.766Z,72.50
2022-12-31T04:49:34.369Z,72.20
2022-12-31T04:52:00.915Z,72.07
2022-12-31T04:54:27.952Z,72.23
2022-12-31T04:56:55.022Z,73.30
2022-12-31T04:59:21.904Z,72.32
2022-12-31T05:01:50.062Z,72.24
2022-12-31T05:04:17.027Z,72.10
2022-12-31T05:06:43.652Z,71.62
2022-12-31T05:09:10.399Z,71.04
2022-12-31T05:11:37.056Z,70.96
2022-12-31T05:14:03.840Z,71.04
2022-12-31T05:16:30.407Z,71.37
2022-12-31T05:18:58.430Z,71.61
2022-12-31T05:21:24.998Z,71.07
2022-12-31T05:23:52.028Z,71.10
2022-12-31T05:26:18.747Z,71.11
2022-12-31T05:28:45.474Z,71.25
2022-12-31T05:31:12.824Z,71.43
2022-12-31T05:33:39.647Z,71.20
2022-12-31T05:36:08.164Z,70.79
2022-12-31T05:38:35.195Z,70.39
2022-12-31T05:41:03.217Z,70.87
2022-12-31T05:43:30.621Z,70.67
2022-12-31T05:45:59.823Z,70.87
2022-12-31T05:48:27.309Z,70.07
2022-12-31T05:50:54.045Z,70.76
2022-12-31T05:53:22.033Z,70.54
2022-12-31T05:55:48.864Z,70.20
2022-12-31T05:58:15.917Z,69.99
2022-12-31T06:00:42.883Z,70.60
2022-12-31T06:03:09.964Z,70.50
2022-12-31T06:05:43.116Z,70.26
2022-12-31T06:08:10.238Z,69.88
2022-12-31T06:10:39.230Z,70.36
2022-12-31T06:13:06.208Z,69.84
2022-12-31T06:15:32.953Z,69.56
2022-12-31T06:17:59.554Z,70.49
2022-12-31T06:20:29.255Z,70.05
2022-12-31T06:22:55.821Z,70.19
2022-12-31T06:25:22.398Z,70.53
2022-12-31T06:27:50.694Z,70.87
2022-12-31T06:30:20.380Z,71.00
2022-12-31T06:32:46.952Z,71.57
2022-12-31T06:35:13.593Z,70.80
2022-12-31T06:37:40.707Z,70.66
2022-12-31T06:40:08.751Z,71.11
2022-12-31T06:42:35.549Z,70.16
2022-12-31T06:45:04.954Z,70.10
2022-12-31T06:47:34.272Z,69.98
2022-12-31T06:50:00.894Z,70.82
2022-12-31T06:52:27.546Z,70.53
2022-12-31T06:54:54.945Z,69.76
2022-12-31T06:57:22.198Z,69.04
2022-12-31T06:59:49.576Z,69.44
2022-12-31T07:02:44.322Z,68.92
2022-12-31T07:05:26.820Z,69.72
2022-12-31T07:08:06.039Z,69.06
2022-12-31T07:10:42.175Z,69.30
2022-12-31T07:13:22.014Z,69.39
2022-12-31T07:16:00.752Z,69.27
2022-12-31T07:18:36.421Z,69.68
2022-12-31T07:21:03.575Z,69.11
2022-12-31T07:23:31.056Z,68.94
2022-12-31T07:26:06.773Z,69.02
2022-12-31T07:28:48.133Z,69.01
2022-12-31T07:31:25.538Z,68.84
2022-12-31T07:33:59.883Z,68.97
2022-12-31T07:36:43.175Z,69.37
2022-12-31T07:39:15.128Z,69.16
2022-12-31T07:41:52.937Z,68.86
2022-12-31T07:44:50.229Z,68.62
2022-12-31T07:47:22.373Z,68.45
2022-12-31T07:49:51.858Z,68.41
2022-12-31T07:52:20.175Z,67.45
2022-12-31T07:54:47.199Z,68.03
2022-12-31T07:57:16.362Z,67.64
2022-12-31T08:00:08.263Z,67.09
2022-12-31T08:03:01.320Z,66.96
2022-12-31T08:05:34.371Z,66.14
2022-12-31T08:08:18.099Z,67.02
2022-12-31T08:10:57.772Z,66.79
2022-12-31T08:13:27.732Z,66.33
2022-12-31T08:15:55.789Z,66.11
2022-12-31T08:18:22.915Z,66.38
2022-12-31T08:21:02.675Z,65.73
2022-12-31T08:23:34.769Z,66.24
2022-12-31T08:26:16.582Z,65.54
2022-12-31T08:28:55.028Z,65.04
2022-12-31T08:31:29.397Z,65.14
2022-12-31T08:34:07.769Z,65.39
2022-12-31T08:36:45.609Z,65.85
2022-12-31T08:39:21.348Z,65.24
2022-12-31T08:41:56.951Z,64.74
2022-12-31T08:44:34.352Z,65.00
2022-12-31T08:49:57.520Z,63.79
2022-12-31T08:52:27.437Z,64.92
2022-12-31T08:54:54.880Z,64.81
2022-12-31T08:57:32.061Z,64.78
2022-12-31T09:00:06.442Z,64.34
2022-12-31T09:03:03.597Z,64.28
2022-12-31T09:05:39.179Z,63.94
2022-12-31T09:08:27.171Z,64.05
2022-12-31T09:10:59.209Z,64.26
2022-12-31T09:13:36.216Z,65.00
2022-12-31T09:16:15.286Z,64.57
2022-12-31T09:18:47.198Z,64.56
2022-12-31T09:21:18.715Z,63.71
2022-12-31T09:23:47.717Z,64.71
2022-12-31T09:26:40.935Z,64.72
2022-12-31T09:29:17.164Z,64.67
2022-12-31T09:31:51.869Z,64.43
2022-12-31T09:34:27.014Z,64.32
2022-12-31T09:36:59.681Z,65.01
2022-12-31T09:39:37.318Z,64.18
2022-12-31T09:42:43.857Z,64.50
2022-12-31T09:46:02.163Z,64.11
2022-12-31T09:49:01.285Z,63.66
2022-12-31T09:51:45.688Z,63.15
2022-12-31T09:54:40.300Z,63.79
2022-12-31T09:57:25.044Z,63.31
2022-12-31T09:59:58.463Z,63.48
2022-12-31T10:02:45.880Z,63.31
2022-12-31T10:05:41.620Z,62.76
2022-12-31T10:08:29.306Z,62.01
2022-12-31T10:11:29.125Z,62.66
2022-12-31T10:14:10.468Z,62.61
2022-12-31T10:16:53.568Z,62.74
2022-12-31T10:19:43.308Z,62.10
2022-12-31T10:22:30.795Z,62.04
2022-12-31T10:25:39.580Z,61.59
2022-12-31T10:28:18.268Z,60.82
2022-12-31T10:31:03.469Z,61.55
2022-12-31T10:33:42.015Z,61.39
2022-12-31T10:36:17.222Z,61.26
2022-12-31T10:39:07.454Z,61.16
2022-12-31T10:42:17.443Z,61.87
2022-12-31T10:45:32.168Z,62.92
2022-12-31T10:48:24.629Z,61.69
2022-12-31T10:51:12.183Z,61.08
2022-12-31T10:54:12.870Z,60.86
2022-12-31T10:57:02.628Z,60.74
2022-12-31T10:59:55.340Z,60.75
2022-12-31T11:02:52.645Z,61.17
2022-12-31T11:05:56.200Z,60.84
2022-12-31T11:08:49.284Z,61.79
2022-12-31T11:11:31.069Z,60.77
2022-12-31T11:14:34.476Z,60.74
2022-12-31T11:17:29.689Z,60.42
2022-12-31T11:20:33.629Z,60.53
2022-12-31T11:23:13.005Z,60.80
2022-12-31T11:25:54.918Z,60.72
2022-12-31T11:28:39.029Z,61.30
2022-12-31T11:31:15.748Z,61.64
2022-12-31T11:33:59.033Z,61.23
2022-12-31T11:36:49.046Z,61.19
2022-12-31T11:39:38.439Z,61.14
2022-12-31T11:42:19.190Z,61.32
2022-12-31T11:44:54.095Z,61.20
2022-12-31T11:48:28.557Z,61.52
2022-12-31T11:50:49.930Z,62.29
2022-12-31T11:53:42.996Z,61.74
2022-12-31T11:56:23.745Z,62.27
2022-12-31T11:58:53.096Z,61.22
2022-12-31T12:01:24.938Z,61.06
2022-12-31T12:03:51.763Z,62.07
2022-12-31T12:06:25.205Z,61.41
2022-12-31T12:08:56.104Z,61.28
2022-12-31T12:11:25.838Z,61.19
2022-12-31T12:13:53.913Z,61.01
2022-12-31T12:16:21.981Z,61.17
2022-12-31T12:18:50.443Z,61.13
2022-12-31T12:21:25.058Z,61.35
2022-12-31T12:23:58.593Z,61.06
2022-12-31T12:26:33.445Z,60.58
2022-12-31T12:29:08.515Z,60.46
2022-12-31T12:31:38.342Z,60.81
2022-12-31T12:34:05.935Z,60.61
2022-12-31T12:36:32.660Z,60.76
2022-12-31T12:39:07.149Z,60.72
2022-12-31T12:41:34.395Z,60.91
2022-12-31T12:44:05.991Z,61.94
2022-12-31T12:46:53.767Z,63.88
2022-12-31T12:49:24.160Z,63.92
2022-12-31T12:52:33.190Z,63.50
2022-12-31T12:55:12.598Z,63.29
2022-12-31T12:57:48.666Z,63.69
2022-12-31T13:00:21.194Z,62.93
2022-12-31T13:03:20.675Z,63.01
2022-12-31T13:06:11.140Z,62.56
2022-12-31T13:08:57.255Z,62.21
2022-12-31T13:11:34.688Z,61.67
2022-12-31T13:14:15.880Z,61.70
2022-12-31T13:16:56.866Z,61.24
2022-12-31T13:19:33.523Z,61.57
2022-12-31T13:22:08.217Z,61.28
2022-12-31T13:24:52.278Z,60.88
2022-12-31T13:27:27.492Z,61.13
2022-12-31T13:29:59.264Z,61.12
2022-12-31T13:32:38.615Z,61.84
2022-12-31T13:35:24.958Z,61.98
2022-12-31T13:38:05.650Z,61.57
2022-12-31T13:40:58.819Z,61.13
2022-12-31T13:43:38.294Z,60.12
2022-12-31T13:46:18.099Z,61.24
2022-12-31T13:48:54.416Z,60.84
2022-12-31T13:51:40.066Z,59.96
2022-12-31T13:54:18.241Z,59.32
2022-12-31T13:56:48.227Z,59.26
2022-12-31T13:59:27.582Z,59.12
2022-12-31T14:01:59.076Z,59.36
2022-12-31T14:04:36.737Z,59.31
2022-12-31T14:07:16.036Z,58.94
2022-12-31T14:09:43.173Z,59.87
2022-12-31T14:12:21.820Z,60.25
2022-12-31T14:15:20.107Z,61.53
2022-12-31T14:18:04.324Z,62.29
2022-12-31T14:20:42.366Z,62.49
2022-12-31T14:23:21.494Z,63.31
2022-12-31T14:25:52.314Z,63.04
2022-12-31T14:28:30.450Z,64.12
2022-12-31T14:31:15.064Z,64.64
2022-12-31T14:33:59.855Z,64.45
2022-12-31T14:36:38.647Z,65.60
2022-12-31T14:39:32.763Z,66.18
2022-12-31T14:42:13.136Z,65.89
2022-12-31T14:44:53.463Z,65.36
2022-12-31T14:47:33.965Z,65.97
2022-12-31T14:50:14.994Z,65.29
2022-12-31T14:52:53.193Z,64.99
2022-12-31T14:55:31.326Z,65.99
2022-12-31T14:58:29.732Z,66.47
2022-12-31T15:00:59.947Z,66.32
2022-12-31T15:03:41.258Z,66.39
2022-12-31T15:06:48.139Z,66.26
2022-12-31T15:09:47.809Z,66.16
2022-12-31T15:12:39.787Z,66.80
2022-12-31T15:15:29.639Z,67.01
2022-12-31T15:18:16.255Z,67.15
2022-12-31T15:21:18.613Z,67.50
2022-12-31T15:23:58.690Z,67.87
2022-12-31T15:26:28.215Z,68.05
2022-12-31T15:29:09.720Z,67.92
2022-12-31T15:34:40.180Z,68.78
2022-12-31T15:37:45.319Z,68.89
2022-12-31T15:40:34.515Z,68.77
2022-12-31T15:43:19.343Z,68.38
2022-12-31T15:45:51.210Z,68.37
2022-12-31T15:48:24.740Z,67.98
2022-12-31T15:50:55.768Z,68.30
2022-12-31T15:54:07.724Z,68.15
2022-12-31T15:56:41.209Z,67.62
2022-12-31T15:59:38.511Z,67.62
2022-12-31T16:02:21.480Z,67.61
2022-12-31T16:04:49.426Z,67.31
2022-12-31T16:07:18.256Z,67.29
2022-12-31T16:09:51.198Z,66.96
2022-12-31T16:12:25.418Z,66.67
2022-12-31T16:14:57.892Z,66.87
2022-12-31T16:17:28.153Z,66.74
2022-12-31T16:19:58.896Z,66.74
2022-12-31T16:22:27.550Z,66.72
2022-12-31T16:25:28.901Z,65.79
2022-12-31T16:27:54.093Z,66.18
2022-12-31T16:30:26.118Z,65.95
2022-12-31T16:32:55.763Z,65.60
2022-12-31T16:35:24.913Z,65.59
2022-12-31T16:38:13.304Z,65.88
2022-12-31T16:40:44.760Z,65.42
2022-12-31T16:43:30.377Z,65.53
2022-12-31T16:46:06.498Z,65.18
2022-12-31T16:48:37.997Z,64.72
2022-12-31T16:51:05.930Z,64.68
2022-12-31T16:53:37.192Z,64.77
2022-12-31T16:56:07.733Z,64.86
2022-12-31T16:58:44.449Z,64.82
2022-12-31T17:01:18.465Z,64.51
2022-12-31T17:03:50.773Z,64.74
2022-12-31T17:06:21.382Z,65.33
2022-12-31T17:09:06.069Z,64.92
2022-12-31T17:11:43.634Z,65.01
2022-12-31T17:17:03.834Z,65.65
2022-12-31T17:19:40.847Z,64.84
2022-12-31T17:22:13.379Z,65.72
2022-12-31T17:24:40.673Z,65.47
2022-12-31T17:27:10.984Z,65.43
2022-12-31T17:29:52.512Z,65.50
2022-12-31T17:32:45.109Z,65.36
2022-12-31T17:35:28.938Z,64.49
2022-12-31T17:38:33.842Z,64.49
2022-12-31T17:41:15.412Z,63.78
2022-12-31T17:43:50.290Z,63.32
2022-12-31T17:46:21.332Z,63.21
2022-12-31T17:48:54.681Z,63.28
2022-12-31T17:51:24.276Z,62.44
2022-12-31T17:53:51.466Z,62.60
2022-12-31T17:56:19.712Z,62.10
2022-12-31T17:58:49.912Z,61.63
2022-12-31T18:01:20.271Z,61.64
2022-12-31T18:03:47.683Z,61.63
2022-12-31T18:06:17.004Z,61.85
2022-12-31T18:08:43.920Z,62.01
2022-12-31T18:11:15.842Z,62.08
2022-12-31T18:13:42.919Z,62.18
2022-12-31T18:16:09.583Z,62.21
2022-12-31T18:18:37.691Z,61.70
2022-12-31T18:21:07.479Z,61.63
2022-12-31T18:23:38.280Z,60.94
2022-12-31T18:26:05.287Z,60.71
2022-12-31T18:28:32.026Z,61.32
2022-12-31T18:30:59.198Z,61.17
2022-12-31T18:33:26.192Z,61.08
2022-12-31T18:36:12.422Z,60.45
2022-12-31T18:38:42.824Z,60.88
2022-12-31T18:41:18.311Z,60.57
2022-12-31T18:43:45.488Z,60.56
2022-12-31T18:46:12.929Z,60.04
2022-12-31T18:49:26.803Z,60.05
2022-12-31T18:51:55.143Z,59.97
2022-12-31T18:54:27.325Z,59.40
2022-12-31T18:56:57.146Z,59.20
2022-12-31T18:59:24.099Z,59.37
2022-12-31T19:01:51.086Z,59.07
2022-12-31T19:04:26.960Z,58.68
2022-12-31T19:06:55.957Z,58.24
2022-12-31T19:09:44.658Z,57.81
2022-12-31T19:12:12.879Z,57.72
2022-12-31T19:14:39.657Z,57.54
2022-12-31T19:19:32.042Z,57.69
2022-12-31T19:22:01.199Z,57.35
2022-12-31T19:24:28.505Z,57.44
2022-12-31T19:26:55.519Z,57.48
2022-12-31T19:29:25.205Z,57.18
2022-12-31T19:31:52.596Z,56.83
2022-12-31T19:34:19.443Z,56.32
2022-12-31T19:36:46.337Z,56.29
2022-12-31T19:39:18.022Z,56.19
2022-12-31T19:41:44.907Z,56.21
2022-12-31T19:44:15.389Z,55.92
2022-12-31T19:46:42.690Z,55.37
2022-12-31T19:49:10.949Z,55.42
2022-12-31T19:51:38.053Z,55.38
2022-12-31T19:54:04.958Z,55.34
2022-12-31T19:56:33.065Z,54.77
2022-12-31T19:59:06.359Z,55.13
2022-12-31T20:01:33.537Z,54.43
2022-12-31T20:04:00.659Z,54.76
2022-12-31T20:06:27.418Z,54.31
2022-12-31T20:08:54.140Z,53.86
2022-12-31T20:11:22.862Z,54.15
2022-12-31T20:13:52.677Z,53.87
2022-12-31T20:16:23.009Z,53.78
2022-12-31T20:18:50.132Z,54.09
2022-12-31T20:21:19.802Z,53.96
2022-12-31T20:23:48.127Z,53.93
2022-12-31T20:26:15.969Z,53.14
2022-12-31T20:28:42.800Z,52.92
2022-12-31T20:31:13.214Z,52.77
2022-12-31T20:33:40.789Z,52.55
2022-12-31T20:36:13.107Z,51.98
2022-12-31T20:38:40.221Z,52.14
2022-12-31T20:41:08.938Z,52.14
2022-12-31T20:43:36.409Z,52.14
2022-12-31T20:46:10.970Z,51.81
2022-12-31T20:48:43.484Z,51.54
2022-12-31T20:51:11.939Z,51.36
2022-12-31T20:53:38.734Z,51.02
2022-12-31T20:56:06.733Z,51.24
2022-12-31T20:58:33.703Z,50.74
2022-12-31T21:01:00.581Z,50.77
2022-12-31T21:04:03.609Z,50.56
2022-12-31T21:06:17.664Z,50.74
2022-12-31T21:08:44.868Z,50.07
2022-12-31T21:11:12.796Z,49.75
2022-12-31T21:13:39.448Z,50.12
2022-12-31T21:16:06.571Z,49.62
2022-12-31T21:18:33.365Z,49.58
2022-12-31T21:21:00.045Z,49.85
2022-12-31T21:23:29.913Z,49.26
2022-12-31T21:25:57.053Z,49.57
2022-12-31T21:28:24.199Z,49.56
2022-12-31T21:30:56.459Z,49.79
2022-12-31T21:33:23.151Z,49.56
2022-12-31T21:35:54.599Z,49.65
2022-12-31T21:38:22.830Z,49.24
2022-12-31T21:40:51.083Z,49.50
2022-12-31T21:43:18.091Z,49.32
2022-12-31T21:45:45.045Z,49.02
2022-12-31T21:48:13.300Z,49.60
2022-12-31T21:50:42.799Z,49.54
2022-12-31T21:53:09.420Z,49.52
2022-12-31T21:55:38.604Z,49.97
2022-12-31T22:00:57.194Z,49.49
2022-12-31T22:03:24.072Z,49.54
2022-12-31T22:05:57.613Z,49.34
2022-12-31T22:08:24.673Z,48.70
2022-12-31T22:10:52.930Z,49.00
2022-12-31T22:13:24.763Z,49.13
2022-12-31T22:15:56.332Z,48.92
2022-12-31T22:18:29.701Z,48.07
2022-12-31T22:21:17.804Z,48.25
2022-12-31T22:23:52.854Z,48.28
2022-12-31T22:26:24.334Z,48.15
2022-12-31T22:28:54.888Z,48.66
2022-12-31T22:31:23.288Z,48.32
2022-12-31T22:33:50.771Z,48.36
2022-12-31T22:36:26.969Z,48.51
2022-12-31T22:38:56.514Z,48.37
2022-12-31T22:41:24.929Z,48.46
2022-12-31T22:44:02.669Z,49.02
2022-12-31T22:46:30.404Z,49.19
2022-12-31T22:48:58.882Z,48.99
2022-12-31T22:51:54.800Z,49.50
2022-12-31T22:54:12.950Z,49.50
2022-12-31T22:56:39.773Z,49.56
2022-12-31T22:59:07.948Z,49.72
2022-12-31T23:01:34.792Z,50.16
2022-12-31T23:04:01.696Z,50.05
2022-12-31T23:06:29.246Z,49.66
2022-12-31T23:08:57.279Z,50.00
2022-12-31T23:11:29.847Z,50.08
2022-12-31T23:14:20.084Z,50.16
2022-12-31T23:16:48.751Z,49.93
2022-12-31T23:19:20.788Z,49.99
2022-12-31T23:21:50.297Z,50.09
2022-12-31T23:24:30.596Z,49.49
2022-12-31T23:27:16.079Z,49.39
2022-12-31T23:29:47.808Z,50.02
2022-12-31T23:32:28.101Z,50.14
2022-12-31T23:35:12.786Z,50.20
2022-12-31T23:37:41.443Z,49.65
2022-12-31T23:40:09.553Z,50.14
2022-12-31T23:42:36.375Z,49.67
2022-12-31T23:45:05.125Z,50.00
2022-12-31T23:47:31.791Z,49.83
2022-12-31T23:49:58.420Z,49.45
2022-12-31T23:52:25.302Z,49.21
2022-12-31T23:54:51.853Z,49.24
2022-12-31T23:57:18.636Z,49.65
2022-12-31T23:59:45.377Z,49.46
